createdAt,value
2022-09-28T00:02:10.613Z,98123.53
2022-09-28T00:05:12.740Z,98123.81
2022-09-28T00:08:14.180Z,98114.47
2022-09-28T00:11:17.614Z,98106.63
2022-09-28T00:14:19.853Z,98098.94
2022-09-28T00:17:22.713Z,98090.91
2022-09-28T00:20:24.026Z,98085.53
2022-09-28T00:23:25.448Z,98074.44
2022-09-28T00:26:32.058Z,98070.00
2022-09-28T00:29:36.371Z,98058.72
2022-09-28T00:32:37.911Z,98065.53
2022-09-28T00:35:39.470Z,98066.16
2022-09-28T00:38:40.929Z,98057.31
2022-09-28T00:41:42.741Z,98063.50
2022-09-28T00:44:51.377Z,98053.03
2022-09-28T00:47:58.340Z,98051.00
2022-09-28T00:51:04.706Z,98034.66
2022-09-28T00:54:08.237Z,98035.56
2022-09-28T00:57:09.789Z,98032.16
2022-09-28T01:00:12.046Z,98021.63
2022-09-28T01:03:14.582Z,98013.56
2022-09-28T01:06:22.957Z,98014.78
2022-09-28T01:09:27.257Z,98006.75
2022-09-28T01:12:29.469Z,98008.91
2022-09-28T01:15:42.824Z,97995.22
2022-09-28T01:19:05.328Z,97984.75
2022-09-28T01:22:08.432Z,97985.19
2022-09-28T01:25:53.794Z,97983.75
2022-09-28T01:29:05.622Z,97974.50
2022-09-28T01:32:35.466Z,97961.63
2022-09-28T01:35:43.708Z,97963.63
2022-09-28T01:38:53.203Z,97962.25
2022-09-28T01:41:57.535Z,97959.00
2022-09-28T01:45:07.356Z,97949.94
2022-09-28T01:48:13.325Z,97937.66
2022-09-28T01:51:22.098Z,97939.09
2022-09-28T01:54:39.253Z,97943.66
2022-09-28T01:57:52.981Z,97958.75
2022-09-28T02:01:03.578Z,97945.50
2022-09-28T02:04:05.204Z,97948.69
2022-09-28T02:07:17.155Z,97948.72
2022-09-28T02:10:24.714Z,97940.69
2022-09-28T02:13:33.942Z,97929.41
2022-09-28T02:16:47.676Z,97927.78
2022-09-28T02:19:49.184Z,97924.97
2022-09-28T02:22:56.826Z,97920.75
2022-09-28T02:26:06.589Z,97921.75
2022-09-28T02:29:08.265Z,97914.31
2022-09-28T02:32:10.802Z,97921.19
2022-09-28T02:35:15.296Z,97914.53
2022-09-28T02:38:16.825Z,97914.53
2022-09-28T02:41:43.195Z,97910.28
2022-09-28T02:44:47.549Z,97896.78
2022-09-28T02:48:10.773Z,97893.16
2022-09-28T02:51:28.269Z,97892.75
2022-09-28T02:54:55.446Z,97893.16
2022-09-28T02:58:20.159Z,97888.72
2022-09-28T03:01:40.006Z,97883.88
2022-09-28T03:04:48.884Z,97878.03
2022-09-28T03:08:02.112Z,97872.78
2022-09-28T03:11:13.750Z,97870.97
2022-09-28T03:14:16.159Z,97887.50
2022-09-28T03:17:25.308Z,97889.75
2022-09-28T03:20:28.431Z,97884.47
2022-09-28T03:23:29.912Z,97886.91
2022-09-28T03:26:32.361Z,97890.72
2022-09-28T03:29:34.521Z,97896.34
2022-09-28T03:32:40.552Z,97898.41
2022-09-28T03:35:46.643Z,97897.19
2022-09-28T03:38:48.180Z,97890.53
2022-09-28T03:41:49.612Z,97892.31
2022-09-28T03:44:53.319Z,97899.13
2022-09-28T03:47:54.728Z,97901.16
2022-09-28T03:50:57.704Z,97883.84
2022-09-28T03:53:59.178Z,97888.25
2022-09-28T03:57:00.833Z,97885.44
2022-09-28T04:00:05.373Z,97898.97
2022-09-28T04:03:15.056Z,97894.34
2022-09-28T04:06:16.656Z,97890.72
2022-09-28T04:09:18.127Z,97881.66
2022-09-28T04:12:20.017Z,97881.03
2022-09-28T04:15:24.295Z,97878.63
2022-09-28T04:18:26.343Z,97872.75
2022-09-28T04:21:51.007Z,97877.81
2022-09-28T04:24:52.453Z,97864.91
2022-09-28T04:28:12.588Z,97877.81
2022-09-28T04:31:17.713Z,97883.06
2022-09-28T04:34:21.525Z,97880.25
2022-09-28T04:37:23.887Z,97881.66
2022-09-28T04:40:25.403Z,97883.84
2022-09-28T04:43:28.208Z,97882.44
2022-09-28T04:46:29.730Z,97883.06
2022-09-28T04:49:56.957Z,97883.84
2022-09-28T04:53:05.980Z,97879.03
2022-09-28T04:56:11.538Z,97891.72
2022-09-28T04:59:14.526Z,97889.72
2022-09-28T05:02:17.551Z,97900.78
2022-09-28T05:05:51.015Z,97895.97
2022-09-28T05:09:04.882Z,97899.56
2022-09-28T05:12:06.443Z,97908.06
2022-09-28T05:15:08.060Z,97910.88
2022-09-28T05:18:09.483Z,97916.31
2022-09-28T05:21:19.551Z,97906.25
2022-09-28T05:24:20.996Z,97913.28
2022-09-28T05:27:25.938Z,97915.53
2022-09-28T05:30:39.336Z,97928.03
2022-09-28T05:34:01.007Z,97935.28
2022-09-28T05:37:02.785Z,97941.31
2022-09-28T05:40:06.005Z,97931.44
2022-09-28T05:43:07.563Z,97938.72
2022-09-28T05:46:09.062Z,97950.00
2022-09-28T05:49:13.689Z,97950.41
2022-09-28T05:52:15.234Z,97953.22
2022-09-28T05:55:16.990Z,97952.41
2022-09-28T05:58:18.545Z,97941.91
2022-09-28T06:01:20.287Z,97944.34
2022-09-28T06:04:22.447Z,97948.19
2022-09-28T06:07:23.948Z,97941.53
2022-09-28T06:10:27.116Z,97947.16
2022-09-28T06:13:32.100Z,97953.00
2022-09-28T06:16:34.817Z,97954.41
2022-09-28T06:19:36.488Z,97961.72
2022-09-28T06:22:52.896Z,97964.53
2022-09-28T06:25:54.387Z,97968.97
2022-09-28T06:28:55.859Z,97964.94
2022-09-28T06:31:57.293Z,97973.19
2022-09-28T06:34:59.294Z,97976.03
2022-09-28T06:38:02.166Z,97973.78
2022-09-28T06:41:03.978Z,97984.50
2022-09-28T06:44:06.877Z,97989.56
2022-09-28T06:47:26.707Z,97989.19
2022-09-28T06:50:42.635Z,97988.81
2022-09-28T06:54:01.112Z,97984.13
2022-09-28T06:57:12.486Z,98000.09
2022-09-28T07:00:14.603Z,97992.41
2022-09-28T07:03:21.815Z,98002.88
2022-09-28T07:06:48.000Z,98011.97
2022-09-28T07:10:11.256Z,98024.06
2022-09-28T07:13:49.435Z,98024.63
2022-09-28T07:17:12.345Z,98020.00
2022-09-28T07:20:19.398Z,98029.13
2022-09-28T07:23:23.344Z,98038.34
2022-09-28T07:27:05.546Z,98034.31
2022-09-28T07:30:33.623Z,98042.34
2022-09-28T07:33:51.129Z,98051.31
2022-09-28T07:37:00.315Z,98056.09
2022-09-28T07:40:26.181Z,98063.75
2022-09-28T07:43:27.967Z,98074.72
2022-09-28T07:46:29.416Z,98065.47
2022-09-28T07:49:36.051Z,98073.09
2022-09-28T07:52:49.564Z,98066.06
2022-09-28T07:56:05.643Z,98078.56
2022-09-28T07:59:25.569Z,98082.84
2022-09-28T08:02:59.793Z,98084.84
2022-09-28T08:06:07.451Z,98089.84
2022-09-28T08:09:08.935Z,98087.06
2022-09-28T08:12:30.632Z,98092.34
2022-09-28T08:15:40.080Z,98093.38
2022-09-28T08:19:04.499Z,98100.41
2022-09-28T08:22:06.105Z,98104.63
2022-09-28T08:25:08.469Z,98106.44
2022-09-28T08:28:10.038Z,98118.78
2022-09-28T08:31:18.660Z,98118.59
2022-09-28T08:34:45.044Z,98112.34
2022-09-28T08:37:55.840Z,98112.72
2022-09-28T08:41:48.705Z,98109.91
2022-09-28T08:45:11.910Z,98112.91
2022-09-28T08:49:13.417Z,98114.34
2022-09-28T08:52:55.547Z,98123.63
2022-09-28T08:56:41.091Z,98118.19
2022-09-28T09:00:10.980Z,98126.22
2022-09-28T09:03:17.909Z,98136.09
2022-09-28T09:06:52.929Z,98140.19
2022-09-28T09:10:18.501Z,98138.13
2022-09-28T09:13:39.657Z,98147.00
2022-09-28T09:17:09.044Z,98154.28
2022-09-28T09:20:47.529Z,98153.81
2022-09-28T09:23:57.032Z,98161.28
2022-09-28T09:27:05.777Z,98166.78
2022-09-28T09:44:39.092Z,98164.41
2022-09-28T09:48:25.085Z,98171.25
2022-09-28T09:51:49.304Z,98165.63
2022-09-28T09:54:59.576Z,98157.75
2022-09-28T09:58:26.399Z,98159.78
2022-09-28T10:01:39.090Z,98159.59
2022-09-28T10:05:02.610Z,98167.19
2022-09-28T10:08:17.705Z,98165.22
2022-09-28T10:11:27.310Z,98165.44
2022-09-28T10:14:30.992Z,98159.16
2022-09-28T10:17:37.294Z,98166.59
2022-09-28T10:20:57.516Z,98159.69
2022-09-28T10:24:22.738Z,98154.28
2022-09-28T10:27:35.909Z,98155.94
2022-09-28T10:30:44.579Z,98151.91
2022-09-28T10:33:46.127Z,98157.56
2022-09-28T10:37:03.252Z,98153.50
2022-09-28T10:40:43.783Z,98148.69
2022-09-28T10:44:06.029Z,98151.13
2022-09-28T10:47:30.437Z,98143.84
2022-09-28T10:50:32.413Z,98152.94
2022-09-28T10:53:41.751Z,98153.75
2022-09-28T10:57:27.939Z,98159.41
2022-09-28T11:00:43.359Z,98160.00
2022-09-28T11:04:02.552Z,98161.44
2022-09-28T11:07:04.718Z,98150.75
2022-09-28T11:10:20.125Z,98141.41
2022-09-28T11:13:21.625Z,98153.53
2022-09-28T11:16:35.862Z,98146.69
2022-09-28T11:19:38.539Z,98136.97
2022-09-28T11:22:45.581Z,98131.72
2022-09-28T11:26:06.764Z,98129.28
2022-09-28T11:29:30.900Z,98139.81
2022-09-28T11:33:02.396Z,98129.09
2022-09-28T11:37:12.389Z,98131.31
2022-09-28T11:40:35.445Z,98140.41
2022-09-28T11:44:08.275Z,98145.06
2022-09-28T11:47:22.508Z,98135.75
2022-09-28T11:50:45.869Z,98131.69
2022-09-28T11:53:59.532Z,98119.13
2022-09-28T11:57:03.939Z,98125.25
2022-09-28T12:00:12.089Z,98135.00
2022-09-28T12:03:27.044Z,98134.34
2022-09-28T12:06:37.429Z,98129.50
2022-09-28T12:10:19.655Z,98126.88
2022-09-28T12:13:27.421Z,98126.88
2022-09-28T12:17:04.996Z,98123.22
2022-09-28T12:20:20.619Z,98123.63
2022-09-28T12:23:33.206Z,98116.75
2022-09-28T12:26:42.539Z,98109.81
2022-09-28T12:29:52.232Z,98114.28
2022-09-28T12:33:13.251Z,98116.59
2022-09-28T12:36:33.134Z,98112.59
2022-09-28T12:40:08.017Z,98113.28
2022-09-28T12:43:33.371Z,98112.59
2022-09-28T12:47:05.478Z,98109.31
2022-09-28T12:50:39.135Z,98115.00
2022-09-28T12:54:01.771Z,98116.09
2022-09-28T12:57:37.961Z,98115.00
2022-09-28T13:00:52.333Z,98116.03
2022-09-28T13:04:12.783Z,98114.09
2022-09-28T13:07:26.390Z,98119.75
2022-09-28T13:10:42.104Z,98117.28
2022-09-28T13:14:08.185Z,98122.41
2022-09-28T13:17:26.282Z,98116.88
2022-09-28T13:20:37.875Z,98116.63
2022-09-28T13:23:45.150Z,98118.25
2022-09-28T13:26:47.828Z,98118.69
2022-09-28T13:29:51.111Z,98125.75
2022-09-28T13:32:56.417Z,98125.59
2022-09-28T13:35:57.820Z,98130.88
2022-09-28T13:39:00.706Z,98131.31
2022-09-28T13:42:02.681Z,98116.34
2022-09-28T13:45:22.657Z,98120.34
2022-09-28T13:48:44.303Z,98130.41
2022-09-28T13:51:48.712Z,98129.28
2022-09-28T13:55:09.033Z,98116.31
2022-09-28T13:58:33.558Z,98127.63
2022-09-28T14:01:41.366Z,98127.63
2022-09-28T14:05:04.002Z,98124.00
2022-09-28T14:08:08.353Z,98120.53
2022-09-28T14:11:42.449Z,98122.38
2022-09-28T14:14:48.447Z,98126.44
2022-09-28T14:18:00.980Z,98121.19
2022-09-28T14:21:02.476Z,98127.22
2022-09-28T14:24:12.101Z,98127.59
2022-09-28T14:27:38.767Z,98126.00
2022-09-28T14:30:43.269Z,98137.72
2022-09-28T14:33:56.782Z,98143.78
2022-09-28T14:37:17.396Z,98140.97
2022-09-28T14:40:48.681Z,98143.03
2022-09-28T14:44:00.315Z,98138.16
2022-09-28T14:47:25.611Z,98144.53
2022-09-28T14:50:29.298Z,98147.97
2022-09-28T14:53:38.735Z,98143.28
2022-09-28T14:57:04.024Z,98147.97
2022-09-28T15:00:15.093Z,98144.94
2022-09-28T15:03:17.266Z,98155.84
2022-09-28T15:06:21.557Z,98152.84
2022-09-28T15:09:30.576Z,98155.91
2022-09-28T15:12:32.131Z,98156.53
2022-09-28T15:15:40.041Z,98160.38
2022-09-28T15:18:43.828Z,98159.53
2022-09-28T15:21:47.661Z,98157.53
2022-09-28T15:25:02.372Z,98160.16
2022-09-28T15:28:18.414Z,98161.19
2022-09-28T15:31:22.409Z,98158.97
2022-09-28T15:34:50.862Z,98162.63
2022-09-28T15:37:54.860Z,98162.41
2022-09-28T15:40:57.347Z,98156.31
2022-09-28T15:44:07.145Z,98156.91
2022-09-28T15:47:24.845Z,98164.44
2022-09-28T15:50:28.930Z,98160.00
2022-09-28T15:53:31.236Z,98157.56
2022-09-28T15:56:50.094Z,98163.84
2022-09-28T15:59:56.852Z,98168.47
2022-09-28T16:03:07.379Z,98167.28
2022-09-28T16:06:10.793Z,98165.25
2022-09-28T16:09:31.505Z,98166.06
2022-09-28T16:12:52.188Z,98162.25
2022-09-28T16:15:58.061Z,98160.41
2022-09-28T16:19:00.982Z,98163.44
2022-09-28T16:22:06.266Z,98165.69
2022-09-28T16:25:18.029Z,98160.81
2022-09-28T16:28:37.568Z,98163.66
2022-09-28T16:31:41.429Z,98172.75
2022-09-28T16:34:43.185Z,98172.75
2022-09-28T16:37:47.604Z,98173.16
2022-09-28T16:40:52.698Z,98177.38
2022-09-28T16:43:59.094Z,98171.09
2022-09-28T16:47:00.750Z,98178.97
2022-09-28T16:50:06.327Z,98176.97
2022-09-28T16:53:45.096Z,98176.97
2022-09-28T16:56:46.619Z,98186.84
2022-09-28T16:59:48.018Z,98181.19
2022-09-28T17:02:52.762Z,98178.94
2022-09-28T17:05:55.171Z,98194.31
2022-09-28T17:08:58.540Z,98189.44
2022-09-28T17:12:00.063Z,98186.63
2022-09-28T17:15:01.487Z,98199.31
2022-09-28T17:18:02.953Z,98197.91
2022-09-28T17:21:07.051Z,98198.44
2022-09-28T17:24:08.457Z,98201.84
2022-09-28T17:27:14.826Z,98195.78
2022-09-28T17:30:16.941Z,98199.22
2022-09-28T17:33:18.599Z,98202.16
2022-09-28T17:36:20.371Z,98200.53
2022-09-28T17:39:24.819Z,98204.88
2022-09-28T17:42:26.233Z,98209.22
2022-09-28T17:45:28.604Z,98207.97
2022-09-28T17:48:31.826Z,98208.66
2022-09-28T17:51:37.575Z,98216.84
2022-09-28T17:54:39.016Z,98216.84
2022-09-28T17:57:40.793Z,98215.47
2022-09-28T18:00:42.898Z,98223.22
2022-09-28T18:03:44.611Z,98225.09
2022-09-28T18:06:46.066Z,98229.41
2022-09-28T18:09:47.452Z,98220.72
2022-09-28T18:12:50.117Z,98233.56
2022-09-28T18:15:52.973Z,98240.97
2022-09-28T18:18:54.799Z,98241.78
2022-09-28T18:21:58.117Z,98257.44
2022-09-28T18:24:59.525Z,98259.19
2022-09-28T18:28:01.165Z,98263.19
2022-09-28T18:31:08.360Z,98263.31
2022-09-28T18:34:11.048Z,98267.56
2022-09-28T18:37:12.835Z,98271.03
2022-09-28T18:40:14.299Z,98282.47
2022-09-28T18:43:16.613Z,98272.00
2022-09-28T18:46:18.262Z,98275.47
2022-09-28T18:49:21.133Z,98284.91
2022-09-28T18:52:22.502Z,98278.53
2022-09-28T18:55:23.939Z,98284.41
2022-09-28T18:58:25.794Z,98291.19
2022-09-28T19:01:30.503Z,98289.25
2022-09-28T19:04:32.428Z,98287.75
2022-09-28T19:07:34.519Z,98292.81
2022-09-28T19:10:36.488Z,98294.34
2022-09-28T19:13:37.896Z,98291.50
2022-09-28T19:16:39.359Z,98287.88
2022-09-28T19:19:42.566Z,98296.75
2022-09-28T19:22:44.983Z,98296.53
2022-09-28T19:25:46.376Z,98302.13
2022-09-28T19:28:48.534Z,98301.38
2022-09-28T19:31:50.053Z,98306.97
2022-09-28T19:34:51.591Z,98305.41
2022-09-28T19:37:53.668Z,98304.84
2022-09-28T19:40:55.969Z,98303.91
2022-09-28T19:43:57.315Z,98309.09
2022-09-28T19:47:06.820Z,98304.59
2022-09-28T19:50:10.197Z,98312.59
2022-09-28T19:53:12.332Z,98309.47
2022-09-28T19:56:13.756Z,98314.81
2022-09-28T19:59:15.850Z,98326.22
2022-09-28T20:02:17.252Z,98318.63
2022-09-28T20:05:18.894Z,98319.00
2022-09-28T20:08:20.580Z,98327.53
2022-09-28T20:11:21.989Z,98331.91
2022-09-28T20:14:25.838Z,98329.00
2022-09-28T20:17:29.645Z,98323.13
2022-09-28T20:20:31.019Z,98328.16
2022-09-28T20:23:36.117Z,98326.63
2022-09-28T20:26:37.840Z,98328.16
2022-09-28T20:29:39.397Z,98329.13
2022-09-28T20:32:40.809Z,98325.50
2022-09-28T20:35:44.239Z,98323.16
2022-09-28T20:38:54.107Z,98318.53
2022-09-28T20:41:57.539Z,98326.50
2022-09-28T20:44:59.142Z,98329.22
2022-09-28T20:48:07.112Z,98320.56
2022-09-28T20:51:12.072Z,98318.41
2022-09-28T20:54:13.539Z,98320.28
2022-09-28T20:57:17.823Z,98328.91
2022-09-28T21:00:19.355Z,98320.34
2022-09-28T21:03:20.944Z,98312.31
2022-09-28T21:06:24.659Z,98316.63
2022-09-28T21:09:26.053Z,98318.69
2022-09-28T21:12:28.612Z,98309.78
2022-09-28T21:15:30.107Z,98313.94
2022-09-28T21:18:31.649Z,98310.03
2022-09-28T21:21:33.076Z,98294.56
2022-09-28T21:24:34.514Z,98298.00
2022-09-28T21:27:36.442Z,98294.97
2022-09-28T21:30:38.087Z,98297.50
2022-09-28T21:33:39.555Z,98303.34
2022-09-28T21:36:43.423Z,98299.63
2022-09-28T21:39:44.926Z,98298.00
2022-09-28T21:42:46.915Z,98296.00
2022-09-28T21:45:52.404Z,98301.84
2022-09-28T21:48:53.891Z,98309.22
2022-09-28T21:51:55.317Z,98301.56
2022-09-28T21:54:56.877Z,98308.22
2022-09-28T21:57:58.346Z,98303.34
2022-09-28T22:01:18.149Z,98300.09
2022-09-28T22:04:19.956Z,98296.63
2022-09-28T22:07:21.534Z,98297.66
2022-09-28T22:10:22.944Z,98299.75
2022-09-28T22:13:24.374Z,98296.88
2022-09-28T22:16:29.248Z,98290.66
2022-09-28T22:19:30.816Z,98295.72
2022-09-28T22:22:32.502Z,98303.22
2022-09-28T22:25:34.215Z,98296.75
2022-09-28T22:28:35.726Z,98296.63
2022-09-28T22:31:39.725Z,98302.03
2022-09-28T22:34:41.575Z,98296.91
2022-09-28T22:37:42.979Z,98293.50
2022-09-28T22:40:49.119Z,98287.56
2022-09-28T22:43:52.919Z,98287.53
2022-09-28T22:46:54.431Z,98298.66
2022-09-28T22:49:56.235Z,98294.75
2022-09-28T22:52:57.622Z,98294.66
2022-09-28T22:56:01.272Z,98291.16
2022-09-28T22:59:02.858Z,98296.25
2022-09-28T23:02:04.373Z,98293.53
2022-09-28T23:05:06.907Z,98299.94
2022-09-28T23:08:08.296Z,98292.09
2022-09-28T23:11:09.985Z,98293.34
2022-09-28T23:14:12.068Z,98297.50
2022-09-28T23:17:13.585Z,98299.84
2022-09-28T23:20:15.089Z,98297.66
2022-09-28T23:23:16.480Z,98300.91
2022-09-28T23:26:23.686Z,98296.91
2022-09-28T23:29:25.103Z,98297.75
2022-09-28T23:32:31.136Z,98299.47
2022-09-28T23:35:34.294Z,98303.81
2022-09-28T23:38:35.672Z,98295.06
2022-09-28T23:41:37.559Z,98286.22
2022-09-28T23:44:38.960Z,98286.31
2022-09-28T23:47:40.344Z,98288.13
2022-09-28T23:50:43.165Z,98279.28
2022-09-28T23:53:45.260Z,98274.13
2022-09-28T23:56:46.675Z,98277.84
2022-09-28T23:59:48.102Z,98272.28
